sensor_id;sensor_type;location;lat;lon;timestamp;P1;durP1;ratioP1;P2;durP2;ratioP2
23260;SDS011;11799;47.740;-3.390;2023-04-24T00:00:08;9.05;;;3.40;;
23260;SDS011;11799;47.740;-3.390;2023-04-24T00:02:34;16.40;;;4.20;;
23260;SDS011;11799;47.740;-3.390;2023-04-24T00:05:03;12.77;;;3.63;;
23260;SDS011;11799;47.740;-3.390;2023-04-24T00:07:30;13.27;;;3.28;;
23260;SDS011;11799;47.740;-3.390;2023-04-24T00:09:56;11.85;;;3.28;;
23260;SDS011;11799;47.740;-3.390;2023-04-24T00:12:21;14.57;;;3.70;;
23260;SDS011;11799;47.740;-3.390;2023-04-24T00:14:47;11.95;;;3.85;;
23260;SDS011;11799;47.740;-3.390;2023-04-24T00:17:13;11.75;;;3.53;;
23260;SDS011;11799;47.740;-3.390;2023-04-24T00:19:38;18.45;;;4.55;;
23260;SDS011;11799;47.740;-3.390;2023-04-24T00:22:04;11.90;;;4.10;;
23260;SDS011;11799;47.740;-3.390;2023-04-24T00:24:30;10.95;;;3.30;;
23260;SDS011;11799;47.740;-3.390;2023-04-24T00:26:56;12.07;;;4.07;;
23260;SDS011;11799;47.740;-3.390;2023-04-24T00:29:22;12.20;;;3.92;;
23260;SDS011;11799;47.740;-3.390;2023-04-24T00:31:47;12.85;;;3.63;;
23260;SDS011;11799;47.740;-3.390;2023-04-24T00:34:13;18.75;;;3.53;;
23260;SDS011;11799;47.740;-3.390;2023-04-24T00:36:38;11.00;;;3.72;;
23260;SDS011;11799;47.740;-3.390;2023-04-24T00:39:04;13.02;;;3.38;;
23260;SDS011;11799;47.740;-3.390;2023-04-24T00:41:30;10.07;;;3.70;;
23260;SDS011;11799;47.740;-3.390;2023-04-24T00:43:55;9.63;;;3.67;;
23260;SDS011;11799;47.740;-3.390;2023-04-24T00:46:21;11.32;;;3.38;;
23260;SDS011;11799;47.740;-3.390;2023-04-24T00:48:47;12.63;;;3.90;;
23260;SDS011;11799;47.740;-3.390;2023-04-24T00:51:13;7.13;;;3.60;;
23260;SDS011;11799;47.740;-3.390;2023-04-24T00:53:39;8.80;;;3.72;;
23260;SDS011;11799;47.740;-3.390;2023-04-24T00:56:04;9.45;;;3.65;;
23260;SDS011;11799;47.740;-3.390;2023-04-24T00:58:31;13.13;;;4.20;;
23260;SDS011;11799;47.740;-3.390;2023-04-24T01:00:57;8.27;;;3.55;;
23260;SDS011;11799;47.740;-3.390;2023-04-24T01:03:28;12.48;;;4.78;;
23260;SDS011;11799;47.740;-3.390;2023-04-24T01:05:56;12.40;;;4.45;;
23260;SDS011;11799;47.740;-3.390;2023-04-24T01:08:24;11.45;;;3.47;;
23260;SDS011;11799;47.740;-3.390;2023-04-24T01:10:53;8.52;;;3.35;;
23260;SDS011;11799;47.740;-3.390;2023-04-24T01:13:19;12.00;;;4.15;;
23260;SDS011;11799;47.740;-3.390;2023-04-24T01:15:46;7.07;;;3.65;;
23260;SDS011;11799;47.740;-3.390;2023-04-24T01:18:12;9.90;;;3.88;;
23260;SDS011;11799;47.740;-3.390;2023-04-24T01:20:39;18.77;;;4.45;;
23260;SDS011;11799;47.740;-3.390;2023-04-24T01:23:06;8.57;;;3.55;;
23260;SDS011;11799;47.740;-3.390;2023-04-24T01:25:32;13.00;;;3.97;;
23260;SDS011;11799;47.740;-3.390;2023-04-24T01:27:58;18.83;;;4.47;;
23260;SDS011;11799;47.740;-3.390;2023-04-24T01:30:24;13.73;;;4.30;;
23260;SDS011;11799;47.740;-3.390;2023-04-24T01:32:50;12.45;;;4.13;;
23260;SDS011;11799;47.740;-3.390;2023-04-24T01:35:17;16.02;;;3.90;;
23260;SDS011;11799;47.740;-3.390;2023-04-24T01:37:42;13.07;;;4.40;;
23260;SDS011;11799;47.740;-3.390;2023-04-24T01:40:08;13.60;;;4.80;;
23260;SDS011;11799;47.740;-3.390;2023-04-24T01:42:34;12.35;;;4.00;;
23260;SDS011;11799;47.740;-3.390;2023-04-24T01:45:01;14.73;;;4.28;;
23260;SDS011;11799;47.740;-3.390;2023-04-24T01:47:30;12.05;;;3.65;;
23260;SDS011;11799;47.740;-3.390;2023-04-24T01:49:56;13.07;;;4.22;;
23260;SDS011;11799;47.740;-3.390;2023-04-24T01:52:22;11.82;;;3.90;;
23260;SDS011;11799;47.740;-3.390;2023-04-24T01:54:48;13.13;;;4.00;;
23260;SDS011;11799;47.740;-3.390;2023-04-24T01:57:14;13.00;;;4.07;;
23260;SDS011;11799;47.740;-3.390;2023-04-24T01:59:41;15.02;;;4.47;;
23260;SDS011;11799;47.740;-3.390;2023-04-24T02:02:07;12.25;;;3.75;;
23260;SDS011;11799;47.740;-3.390;2023-04-24T02:04:34;6.35;;;3.90;;
23260;SDS011;11799;47.740;-3.390;2023-04-24T02:06:59;10.32;;;3.72;;
23260;SDS011;11799;47.740;-3.390;2023-04-24T02:09:25;10.63;;;4.40;;
23260;SDS011;11799;47.740;-3.390;2023-04-24T02:11:51;9.32;;;4.40;;
23260;SDS011;11799;47.740;-3.390;2023-04-24T02:14:17;8.85;;;3.95;;
23260;SDS011;11799;47.740;-3.390;2023-04-24T02:16:42;7.68;;;3.85;;
23260;SDS011;11799;47.740;-3.390;2023-04-24T02:19:09;11.52;;;3.63;;
23260;SDS011;11799;47.740;-3.390;2023-04-24T02:21:35;12.15;;;4.00;;
23260;SDS011;11799;47.740;-3.390;2023-04-24T02:24:01;13.00;;;4.03;;
23260;SDS011;11799;47.740;-3.390;2023-04-24T02:26:26;11.65;;;4.18;;
23260;SDS011;11799;47.740;-3.390;2023-04-24T02:28:52;18.17;;;4.25;;
23260;SDS011;11799;47.740;-3.390;2023-04-24T02:31:19;10.18;;;4.30;;
23260;SDS011;11799;47.740;-3.390;2023-04-24T02:33:46;8.88;;;3.97;;
23260;SDS011;11799;47.740;-3.390;2023-04-24T02:36:12;15.10;;;4.00;;
23260;SDS011;11799;47.740;-3.390;2023-04-24T02:38:38;13.20;;;3.67;;
23260;SDS011;11799;47.740;-3.390;2023-04-24T02:41:04;7.32;;;3.63;;
23260;SDS011;11799;47.740;-3.390;2023-04-24T02:43:31;10.75;;;4.10;;
23260;SDS011;11799;47.740;-3.390;2023-04-24T02:45:58;14.20;;;4.45;;
23260;SDS011;11799;47.740;-3.390;2023-04-24T02:48:24;11.98;;;3.97;;
23260;SDS011;11799;47.740;-3.390;2023-04-24T02:50:50;10.32;;;4.32;;
23260;SDS011;11799;47.740;-3.390;2023-04-24T02:53:16;9.10;;;4.22;;
23260;SDS011;11799;47.740;-3.390;2023-04-24T02:55:41;11.40;;;4.03;;
23260;SDS011;11799;47.740;-3.390;2023-04-24T02:58:07;7.88;;;3.40;;
23260;SDS011;11799;47.740;-3.390;2023-04-24T03:00:33;12.45;;;4.18;;
23260;SDS011;11799;47.740;-3.390;2023-04-24T03:02:58;10.02;;;3.92;;
23260;SDS011;11799;47.740;-3.390;2023-04-24T03:05:24;8.63;;;4.20;;
23260;SDS011;11799;47.740;-3.390;2023-04-24T03:07:50;9.88;;;3.88;;
23260;SDS011;11799;47.740;-3.390;2023-04-24T03:10:17;8.45;;;4.00;;
23260;SDS011;11799;47.740;-3.390;2023-04-24T03:12:43;10.40;;;3.72;;
23260;SDS011;11799;47.740;-3.390;2023-04-24T03:15:09;12.00;;;4.30;;
23260;SDS011;11799;47.740;-3.390;2023-04-24T03:17:36;14.20;;;4.35;;
23260;SDS011;11799;47.740;-3.390;2023-04-24T03:20:02;16.17;;;4.43;;
23260;SDS011;11799;47.740;-3.390;2023-04-24T03:22:31;10.60;;;4.15;;
23260;SDS011;11799;47.740;-3.390;2023-04-24T03:24:58;13.80;;;4.63;;
23260;SDS011;11799;47.740;-3.390;2023-04-24T03:27:24;8.77;;;3.88;;
23260;SDS011;11799;47.740;-3.390;2023-04-24T03:29:55;11.10;;;4.05;;
23260;SDS011;11799;47.740;-3.390;2023-04-24T03:32:26;13.00;;;4.10;;
23260;SDS011;11799;47.740;-3.390;2023-04-24T03:34:52;11.52;;;4.60;;
23260;SDS011;11799;47.740;-3.390;2023-04-24T03:37:17;7.38;;;3.55;;
23260;SDS011;11799;47.740;-3.390;2023-04-24T03:39:50;12.65;;;4.15;;
23260;SDS011;11799;47.740;-3.390;2023-04-24T03:42:20;10.45;;;3.95;;
23260;SDS011;11799;47.740;-3.390;2023-04-24T03:44:50;7.05;;;3.53;;
23260;SDS011;11799;47.740;-3.390;2023-04-24T03:47:17;12.18;;;4.15;;
23260;SDS011;11799;47.740;-3.390;2023-04-24T03:49:43;12.60;;;4.72;;
23260;SDS011;11799;47.740;-3.390;2023-04-24T03:52:09;8.52;;;4.20;;
23260;SDS011;11799;47.740;-3.390;2023-04-24T03:54:35;14.30;;;4.70;;
23260;SDS011;11799;47.740;-3.390;2023-04-24T03:57:00;12.13;;;4.35;;
23260;SDS011;11799;47.740;-3.390;2023-04-24T03:59:30;12.73;;;4.82;;
23260;SDS011;11799;47.740;-3.390;2023-04-24T04:02:17;9.25;;;4.20;;
23260;SDS011;11799;47.740;-3.390;2023-04-24T04:04:42;14.35;;;4.35;;
23260;SDS011;11799;47.740;-3.390;2023-04-24T04:07:09;7.03;;;3.90;;
23260;SDS011;11799;47.740;-3.390;2023-04-24T04:09:34;12.15;;;4.10;;
23260;SDS011;11799;47.740;-3.390;2023-04-24T04:12:00;13.30;;;4.28;;
23260;SDS011;11799;47.740;-3.390;2023-04-24T04:14:26;9.73;;;4.30;;
23260;SDS011;11799;47.740;-3.390;2023-04-24T04:16:52;11.68;;;4.47;;
23260;SDS011;11799;47.740;-3.390;2023-04-24T04:19:19;6.63;;;4.03;;
23260;SDS011;11799;47.740;-3.390;2023-04-24T04:21:44;17.23;;;4.78;;
23260;SDS011;11799;47.740;-3.390;2023-04-24T04:24:23;10.75;;;4.10;;
23260;SDS011;11799;47.740;-3.390;2023-04-24T04:26:51;13.07;;;4.03;;
23260;SDS011;11799;47.740;-3.390;2023-04-24T04:29:29;7.10;;;3.88;;
23260;SDS011;11799;47.740;-3.390;2023-04-24T04:31:54;12.40;;;4.05;;
23260;SDS011;11799;47.740;-3.390;2023-04-24T04:34:20;9.88;;;3.88;;
23260;SDS011;11799;47.740;-3.390;2023-04-24T04:36:46;12.80;;;4.18;;
23260;SDS011;11799;47.740;-3.390;2023-04-24T04:39:38;8.13;;;4.15;;
23260;SDS011;11799;47.740;-3.390;2023-04-24T04:42:15;10.00;;;3.85;;
23260;SDS011;11799;47.740;-3.390;2023-04-24T04:44:42;8.80;;;3.80;;
23260;SDS011;11799;47.740;-3.390;2023-04-24T04:47:14;14.38;;;4.32;;
23260;SDS011;11799;47.740;-3.390;2023-04-24T04:49:41;7.82;;;3.92;;
23260;SDS011;11799;47.740;-3.390;2023-04-24T04:52:15;14.27;;;4.63;;
23260;SDS011;11799;47.740;-3.390;2023-04-24T04:54:43;11.27;;;4.55;;
23260;SDS011;11799;47.740;-3.390;2023-04-24T04:57:10;11.48;;;4.53;;
23260;SDS011;11799;47.740;-3.390;2023-04-24T04:59:36;9.55;;;4.40;;
23260;SDS011;11799;47.740;-3.390;2023-04-24T05:02:07;11.55;;;4.50;;
23260;SDS011;11799;47.740;-3.390;2023-04-24T05:04:33;12.07;;;4.65;;
23260;SDS011;11799;47.740;-3.390;2023-04-24T05:06:58;14.65;;;4.28;;
23260;SDS011;11799;47.740;-3.390;2023-04-24T05:09:26;13.25;;;4.40;;
23260;SDS011;11799;47.740;-3.390;2023-04-24T05:11:59;9.88;;;4.25;;
23260;SDS011;11799;47.740;-3.390;2023-04-24T05:14:26;13.50;;;4.93;;
23260;SDS011;11799;47.740;-3.390;2023-04-24T05:16:52;10.98;;;4.57;;
23260;SDS011;11799;47.740;-3.390;2023-04-24T05:19:20;10.40;;;3.78;;
23260;SDS011;11799;47.740;-3.390;2023-04-24T05:21:45;8.20;;;3.80;;
23260;SDS011;11799;47.740;-3.390;2023-04-24T05:24:11;8.55;;;4.07;;
23260;SDS011;11799;47.740;-3.390;2023-04-24T05:27:04;8.50;;;3.42;;
23260;SDS011;11799;47.740;-3.390;2023-04-24T05:29:37;6.63;;;3.72;;
23260;SDS011;11799;47.740;-3.390;2023-04-24T05:32:04;14.07;;;3.65;;
23260;SDS011;11799;47.740;-3.390;2023-04-24T05:34:30;7.85;;;4.20;;
23260;SDS011;11799;47.740;-3.390;2023-04-24T05:36:56;6.47;;;4.25;;
23260;SDS011;11799;47.740;-3.390;2023-04-24T05:39:22;9.40;;;4.28;;
23260;SDS011;11799;47.740;-3.390;2023-04-24T05:41:50;8.90;;;3.88;;
23260;SDS011;11799;47.740;-3.390;2023-04-24T05:44:16;10.07;;;4.15;;
23260;SDS011;11799;47.740;-3.390;2023-04-24T05:46:41;9.45;;;3.92;;
23260;SDS011;11799;47.740;-3.390;2023-04-24T05:49:08;6.63;;;3.88;;
23260;SDS011;11799;47.740;-3.390;2023-04-24T05:51:35;14.50;;;4.13;;
23260;SDS011;11799;47.740;-3.390;2023-04-24T05:54:00;12.57;;;4.20;;
23260;SDS011;11799;47.740;-3.390;2023-04-24T05:56:28;11.77;;;4.95;;
23260;SDS011;11799;47.740;-3.390;2023-04-24T05:58:53;13.05;;;4.45;;
23260;SDS011;11799;47.740;-3.390;2023-04-24T06:01:19;10.30;;;4.47;;
23260;SDS011;11799;47.740;-3.390;2023-04-24T06:03:52;13.65;;;4.95;;
23260;SDS011;11799;47.740;-3.390;2023-04-24T06:06:18;12.05;;;4.25;;
23260;SDS011;11799;47.740;-3.390;2023-04-24T06:08:44;12.63;;;3.95;;
23260;SDS011;11799;47.740;-3.390;2023-04-24T06:11:11;8.05;;;3.40;;
23260;SDS011;11799;47.740;-3.390;2023-04-24T06:13:37;9.30;;;3.65;;
23260;SDS011;11799;47.740;-3.390;2023-04-24T06:16:35;13.80;;;4.10;;
23260;SDS011;11799;47.740;-3.390;2023-04-24T06:19:08;13.10;;;4.07;;
23260;SDS011;11799;47.740;-3.390;2023-04-24T06:21:34;16.48;;;3.85;;
23260;SDS011;11799;47.740;-3.390;2023-04-24T06:24:00;10.80;;;3.88;;
23260;SDS011;11799;47.740;-3.390;2023-04-24T06:26:26;10.60;;;3.75;;
23260;SDS011;11799;47.740;-3.390;2023-04-24T06:28:52;12.65;;;3.70;;
23260;SDS011;11799;47.740;-3.390;2023-04-24T06:31:19;13.43;;;4.00;;
23260;SDS011;11799;47.740;-3.390;2023-04-24T06:33:45;17.00;;;3.38;;
23260;SDS011;11799;47.740;-3.390;2023-04-24T06:36:11;7.22;;;3.28;;
23260;SDS011;11799;47.740;-3.390;2023-04-24T06:38:37;11.88;;;3.58;;
23260;SDS011;11799;47.740;-3.390;2023-04-24T06:41:03;8.88;;;3.20;;
23260;SDS011;11799;47.740;-3.390;2023-04-24T06:43:30;9.50;;;3.50;;
23260;SDS011;11799;47.740;-3.390;2023-04-24T06:45:57;15.55;;;3.53;;
23260;SDS011;11799;47.740;-3.390;2023-04-24T06:48:23;12.93;;;3.65;;
23260;SDS011;11799;47.740;-3.390;2023-04-24T06:50:49;16.75;;;4.35;;
23260;SDS011;11799;47.740;-3.390;2023-04-24T06:53:15;8.63;;;3.13;;
23260;SDS011;11799;47.740;-3.390;2023-04-24T06:55:40;9.10;;;4.22;;
23260;SDS011;11799;47.740;-3.390;2023-04-24T06:58:06;15.05;;;3.90;;
23260;SDS011;11799;47.740;-3.390;2023-04-24T07:00:31;7.57;;;3.13;;
23260;SDS011;11799;47.740;-3.390;2023-04-24T07:02:57;8.25;;;3.42;;
23260;SDS011;11799;47.740;-3.390;2023-04-24T07:05:22;11.77;;;3.10;;
23260;SDS011;11799;47.740;-3.390;2023-04-24T07:07:48;13.05;;;4.18;;
23260;SDS011;11799;47.740;-3.390;2023-04-24T07:10:15;9.95;;;3.30;;
23260;SDS011;11799;47.740;-3.390;2023-04-24T07:12:41;15.00;;;4.15;;
23260;SDS011;11799;47.740;-3.390;2023-04-24T07:15:07;15.32;;;3.70;;
23260;SDS011;11799;47.740;-3.390;2023-04-24T07:17:33;10.85;;;3.33;;
23260;SDS011;11799;47.740;-3.390;2023-04-24T07:20:00;8.27;;;3.35;;
23260;SDS011;11799;47.740;-3.390;2023-04-24T07:22:25;8.73;;;3.22;;
23260;SDS011;11799;47.740;-3.390;2023-04-24T07:24:51;8.02;;;3.28;;
23260;SDS011;11799;47.740;-3.390;2023-04-24T07:27:17;12.25;;;3.08;;
23260;SDS011;11799;47.740;-3.390;2023-04-24T07:29:42;6.53;;;3.00;;
23260;SDS011;11799;47.740;-3.390;2023-04-24T07:32:08;9.13;;;3.28;;
23260;SDS011;11799;47.740;-3.390;2023-04-24T07:34:34;11.43;;;3.97;;
23260;SDS011;11799;47.740;-3.390;2023-04-24T07:37:00;12.30;;;4.20;;
23260;SDS011;11799;47.740;-3.390;2023-04-24T07:39:25;9.93;;;3.88;;
23260;SDS011;11799;47.740;-3.390;2023-04-24T07:41:51;8.60;;;3.20;;
23260;SDS011;11799;47.740;-3.390;2023-04-24T07:44:17;10.75;;;3.15;;
23260;SDS011;11799;47.740;-3.390;2023-04-24T07:46:42;12.02;;;3.90;;
23260;SDS011;11799;47.740;-3.390;2023-04-24T07:49:08;9.20;;;3.78;;
23260;SDS011;11799;47.740;-3.390;2023-04-24T07:51:34;8.73;;;3.20;;
23260;SDS011;11799;47.740;-3.390;2023-04-24T07:54:06;9.20;;;3.53;;
23260;SDS011;11799;47.740;-3.390;2023-04-24T07:56:32;14.60;;;3.90;;
23260;SDS011;11799;47.740;-3.390;2023-04-24T07:58:59;9.18;;;3.28;;
23260;SDS011;11799;47.740;-3.390;2023-04-24T08:01:25;10.27;;;3.90;;
23260;SDS011;11799;47.740;-3.390;2023-04-24T08:03:50;8.90;;;3.38;;
23260;SDS011;11799;47.740;-3.390;2023-04-24T08:06:16;13.10;;;3.85;;
23260;SDS011;11799;47.740;-3.390;2023-04-24T08:08:42;7.75;;;3.13;;
23260;SDS011;11799;47.740;-3.390;2023-04-24T08:11:07;10.48;;;3.42;;
23260;SDS011;11799;47.740;-3.390;2023-04-24T08:13:33;8.20;;;3.60;;
23260;SDS011;11799;47.740;-3.390;2023-04-24T08:15:59;10.52;;;3.53;;
23260;SDS011;11799;47.740;-3.390;2023-04-24T08:18:24;11.27;;;3.78;;
23260;SDS011;11799;47.740;-3.390;2023-04-24T08:20:50;12.40;;;3.55;;
23260;SDS011;11799;47.740;-3.390;2023-04-24T08:23:15;9.15;;;3.83;;
23260;SDS011;11799;47.740;-3.390;2023-04-24T08:25:41;14.43;;;3.63;;
23260;SDS011;11799;47.740;-3.390;2023-04-24T08:28:08;14.35;;;3.80;;
23260;SDS011;11799;47.740;-3.390;2023-04-24T08:30:34;12.93;;;3.60;;
23260;SDS011;11799;47.740;-3.390;2023-04-24T08:32:59;10.80;;;3.33;;
23260;SDS011;11799;47.740;-3.390;2023-04-24T08:35:25;11.27;;;4.10;;
23260;SDS011;11799;47.740;-3.390;2023-04-24T08:37:51;8.73;;;3.55;;
23260;SDS011;11799;47.740;-3.390;2023-04-24T08:40:18;7.80;;;4.00;;
23260;SDS011;11799;47.740;-3.390;2023-04-24T08:42:53;11.25;;;3.47;;
23260;SDS011;11799;47.740;-3.390;2023-04-24T08:45:21;12.02;;;3.20;;
23260;SDS011;11799;47.740;-3.390;2023-04-24T08:47:46;11.00;;;3.80;;
23260;SDS011;11799;47.740;-3.390;2023-04-24T08:50:14;12.20;;;3.53;;
23260;SDS011;11799;47.740;-3.390;2023-04-24T08:52:40;14.15;;;3.97;;
23260;SDS011;11799;47.740;-3.390;2023-04-24T08:55:07;8.90;;;3.13;;
23260;SDS011;11799;47.740;-3.390;2023-04-24T08:57:33;11.60;;;3.05;;
23260;SDS011;11799;47.740;-3.390;2023-04-24T09:00:01;9.98;;;3.35;;
23260;SDS011;11799;47.740;-3.390;2023-04-24T09:02:27;12.32;;;3.78;;
23260;SDS011;11799;47.740;-3.390;2023-04-24T09:04:53;11.63;;;3.60;;
23260;SDS011;11799;47.740;-3.390;2023-04-24T09:07:20;9.13;;;3.10;;
23260;SDS011;11799;47.740;-3.390;2023-04-24T09:09:50;10.00;;;3.38;;
23260;SDS011;11799;47.740;-3.390;2023-04-24T09:12:17;9.70;;;3.40;;
23260;SDS011;11799;47.740;-3.390;2023-04-24T09:14:43;11.30;;;2.78;;
23260;SDS011;11799;47.740;-3.390;2023-04-24T09:17:10;8.65;;;2.78;;
23260;SDS011;11799;47.740;-3.390;2023-04-24T09:19:37;8.55;;;2.92;;
23260;SDS011;11799;47.740;-3.390;2023-04-24T09:22:06;13.18;;;3.25;;
23260;SDS011;11799;47.740;-3.390;2023-04-24T09:24:33;9.90;;;3.22;;
23260;SDS011;11799;47.740;-3.390;2023-04-24T09:26:59;10.85;;;2.88;;
23260;SDS011;11799;47.740;-3.390;2023-04-24T09:29:26;6.18;;;2.40;;
23260;SDS011;11799;47.740;-3.390;2023-04-24T09:31:52;6.97;;;2.60;;
23260;SDS011;11799;47.740;-3.390;2023-04-24T09:34:21;13.27;;;2.53;;
23260;SDS011;11799;47.740;-3.390;2023-04-24T09:36:49;12.90;;;3.00;;
23260;SDS011;11799;47.740;-3.390;2023-04-24T09:39:15;8.07;;;2.70;;
23260;SDS011;11799;47.740;-3.390;2023-04-24T09:41:45;8.68;;;2.63;;
23260;SDS011;11799;47.740;-3.390;2023-04-24T09:44:24;9.25;;;2.80;;
23260;SDS011;11799;47.740;-3.390;2023-04-24T09:46:52;7.13;;;2.47;;
23260;SDS011;11799;47.740;-3.390;2023-04-24T09:49:23;9.02;;;2.58;;
23260;SDS011;11799;47.740;-3.390;2023-04-24T09:51:50;5.57;;;2.50;;
23260;SDS011;11799;47.740;-3.390;2023-04-24T09:54:19;7.63;;;2.88;;
23260;SDS011;11799;47.740;-3.390;2023-04-24T09:56:49;9.70;;;2.65;;
23260;SDS011;11799;47.740;-3.390;2023-04-24T09:59:16;9.17;;;2.70;;
23260;SDS011;11799;47.740;-3.390;2023-04-24T10:01:43;7.97;;;2.72;;
23260;SDS011;11799;47.740;-3.390;2023-04-24T10:06:43;8.45;;;2.80;;
23260;SDS011;11799;47.740;-3.390;2023-04-24T10:09:09;9.20;;;2.55;;
23260;SDS011;11799;47.740;-3.390;2023-04-24T10:11:37;9.20;;;2.50;;
23260;SDS011;11799;47.740;-3.390;2023-04-24T10:14:06;11.95;;;3.10;;
23260;SDS011;11799;47.740;-3.390;2023-04-24T10:16:32;7.53;;;2.75;;
23260;SDS011;11799;47.740;-3.390;2023-04-24T10:18:58;9.45;;;2.88;;
23260;SDS011;11799;47.740;-3.390;2023-04-24T10:21:26;8.90;;;2.70;;
23260;SDS011;11799;47.740;-3.390;2023-04-24T10:23:52;10.73;;;2.72;;
23260;SDS011;11799;47.740;-3.390;2023-04-24T10:26:19;9.77;;;2.88;;
23260;SDS011;11799;47.740;-3.390;2023-04-24T10:28:45;11.57;;;2.97;;
23260;SDS011;11799;47.740;-3.390;2023-04-24T10:31:12;13.77;;;2.65;;
23260;SDS011;11799;47.740;-3.390;2023-04-24T10:33:42;13.68;;;2.60;;
23260;SDS011;11799;47.740;-3.390;2023-04-24T10:36:11;8.57;;;2.55;;
23260;SDS011;11799;47.740;-3.390;2023-04-24T10:38:42;14.70;;;2.95;;
23260;SDS011;11799;47.740;-3.390;2023-04-24T10:41:12;15.05;;;2.60;;
23260;SDS011;11799;47.740;-3.390;2023-04-24T10:43:45;11.50;;;3.00;;
23260;SDS011;11799;47.740;-3.390;2023-04-24T10:46:11;9.63;;;2.40;;
23260;SDS011;11799;47.740;-3.390;2023-04-24T10:48:51;11.80;;;2.88;;
23260;SDS011;11799;47.740;-3.390;2023-04-24T10:51:22;10.57;;;2.50;;
23260;SDS011;11799;47.740;-3.390;2023-04-24T10:53:49;11.48;;;2.45;;
23260;SDS011;11799;47.740;-3.390;2023-04-24T10:56:16;6.63;;;2.42;;
23260;SDS011;11799;47.740;-3.390;2023-04-24T10:58:51;8.48;;;2.90;;
23260;SDS011;11799;47.740;-3.390;2023-04-24T11:01:25;14.10;;;2.75;;
23260;SDS011;11799;47.740;-3.390;2023-04-24T11:03:56;4.55;;;2.13;;
23260;SDS011;11799;47.740;-3.390;2023-04-24T11:06:29;11.27;;;2.83;;
23260;SDS011;11799;47.740;-3.390;2023-04-24T11:11:35;9.35;;;2.55;;
23260;SDS011;11799;47.740;-3.390;2023-04-24T11:14:06;9.02;;;2.97;;
23260;SDS011;11799;47.740;-3.390;2023-04-24T11:21:42;10.15;;;2.10;;
23260;SDS011;11799;47.740;-3.390;2023-04-24T11:24:21;9.75;;;3.00;;
23260;SDS011;11799;47.740;-3.390;2023-04-24T11:27:18;10.43;;;2.38;;
23260;SDS011;11799;47.740;-3.390;2023-04-24T11:29:49;8.40;;;2.47;;
23260;SDS011;11799;47.740;-3.390;2023-04-24T11:32:28;11.15;;;2.38;;
23260;SDS011;11799;47.740;-3.390;2023-04-24T11:34:55;14.77;;;2.42;;
23260;SDS011;11799;47.740;-3.390;2023-04-24T11:37:23;8.57;;;2.38;;
23260;SDS011;11799;47.740;-3.390;2023-04-24T11:39:50;10.77;;;2.35;;
23260;SDS011;11799;47.740;-3.390;2023-04-24T11:42:16;11.23;;;2.60;;
23260;SDS011;11799;47.740;-3.390;2023-04-24T11:44:43;10.88;;;2.42;;
23260;SDS011;11799;47.740;-3.390;2023-04-24T11:47:09;11.05;;;2.97;;
23260;SDS011;11799;47.740;-3.390;2023-04-24T11:49:37;9.93;;;2.85;;
23260;SDS011;11799;47.740;-3.390;2023-04-24T11:52:03;7.15;;;2.50;;
23260;SDS011;11799;47.740;-3.390;2023-04-24T11:54:30;11.25;;;2.53;;
23260;SDS011;11799;47.740;-3.390;2023-04-24T11:56:56;8.93;;;2.67;;
23260;SDS011;11799;47.740;-3.390;2023-04-24T11:59:22;16.20;;;2.72;;
23260;SDS011;11799;47.740;-3.390;2023-04-24T12:01:49;7.28;;;2.65;;
23260;SDS011;11799;47.740;-3.390;2023-04-24T12:04:15;7.30;;;2.00;;
23260;SDS011;11799;47.740;-3.390;2023-04-24T12:09:27;8.77;;;2.33;;
23260;SDS011;11799;47.740;-3.390;2023-04-24T12:11:53;7.60;;;2.33;;
23260;SDS011;11799;47.740;-3.390;2023-04-24T12:14:23;8.57;;;2.13;;
23260;SDS011;11799;47.740;-3.390;2023-04-24T12:16:52;7.10;;;2.63;;
23260;SDS011;11799;47.740;-3.390;2023-04-24T12:19:21;8.75;;;2.58;;
23260;SDS011;11799;47.740;-3.390;2023-04-24T12:22:03;6.82;;;2.42;;
23260;SDS011;11799;47.740;-3.390;2023-04-24T12:24:30;8.90;;;2.17;;
23260;SDS011;11799;47.740;-3.390;2023-04-24T12:26:57;13.10;;;2.65;;
23260;SDS011;11799;47.740;-3.390;2023-04-24T12:29:23;7.95;;;1.92;;
23260;SDS011;11799;47.740;-3.390;2023-04-24T12:31:50;7.28;;;2.35;;
23260;SDS011;11799;47.740;-3.390;2023-04-24T12:34:25;8.60;;;2.60;;
23260;SDS011;11799;47.740;-3.390;2023-04-24T12:36:51;6.50;;;2.25;;
23260;SDS011;11799;47.740;-3.390;2023-04-24T12:39:17;9.32;;;2.72;;
23260;SDS011;11799;47.740;-3.390;2023-04-24T12:42:25;7.65;;;2.20;;
23260;SDS011;11799;47.740;-3.390;2023-04-24T12:44:36;9.70;;;2.42;;
23260;SDS011;11799;47.740;-3.390;2023-04-24T12:47:02;9.75;;;2.22;;
23260;SDS011;11799;47.740;-3.390;2023-04-24T12:49:29;3.97;;;1.48;;
23260;SDS011;11799;47.740;-3.390;2023-04-24T12:51:55;8.68;;;2.25;;
23260;SDS011;11799;47.740;-3.390;2023-04-24T12:54:21;5.82;;;1.60;;
23260;SDS011;11799;47.740;-3.390;2023-04-24T12:56:47;4.80;;;1.73;;
23260;SDS011;11799;47.740;-3.390;2023-04-24T12:59:13;6.40;;;1.58;;
23260;SDS011;11799;47.740;-3.390;2023-04-24T13:01:38;10.20;;;2.17;;
23260;SDS011;11799;47.740;-3.390;2023-04-24T13:04:05;5.60;;;1.70;;
23260;SDS011;11799;47.740;-3.390;2023-04-24T13:06:30;5.93;;;2.03;;
23260;SDS011;11799;47.740;-3.390;2023-04-24T13:08:56;6.85;;;1.90;;
23260;SDS011;11799;47.740;-3.390;2023-04-24T13:11:23;7.20;;;1.98;;
23260;SDS011;11799;47.740;-3.390;2023-04-24T13:13:49;8.05;;;1.83;;
23260;SDS011;11799;47.740;-3.390;2023-04-24T13:16:15;6.25;;;1.70;;
23260;SDS011;11799;47.740;-3.390;2023-04-24T13:18:41;10.07;;;2.63;;
23260;SDS011;11799;47.740;-3.390;2023-04-24T13:21:06;7.13;;;2.00;;
23260;SDS011;11799;47.740;-3.390;2023-04-24T13:23:32;6.63;;;1.77;;
23260;SDS011;11799;47.740;-3.390;2023-04-24T13:25:58;7.10;;;2.20;;
23260;SDS011;11799;47.740;-3.390;2023-04-24T13:28:26;8.85;;;2.03;;
23260;SDS011;11799;47.740;-3.390;2023-04-24T13:30:52;11.47;;;2.20;;
23260;SDS011;11799;47.740;-3.390;2023-04-24T13:33:18;8.05;;;2.05;;
23260;SDS011;11799;47.740;-3.390;2023-04-24T13:35:44;7.03;;;1.80;;
23260;SDS011;11799;47.740;-3.390;2023-04-24T13:38:09;12.68;;;2.63;;
23260;SDS011;11799;47.740;-3.390;2023-04-24T13:40:35;14.25;;;2.58;;
23260;SDS011;11799;47.740;-3.390;2023-04-24T13:43:01;13.07;;;2.25;;
23260;SDS011;11799;47.740;-3.390;2023-04-24T13:45:26;6.55;;;1.98;;
23260;SDS011;11799;47.740;-3.390;2023-04-24T13:47:52;7.57;;;2.35;;
23260;SDS011;11799;47.740;-3.390;2023-04-24T13:50:19;8.05;;;2.33;;
23260;SDS011;11799;47.740;-3.390;2023-04-24T13:52:45;9.30;;;2.10;;
23260;SDS011;11799;47.740;-3.390;2023-04-24T13:55:10;9.70;;;2.40;;
23260;SDS011;11799;47.740;-3.390;2023-04-24T13:57:36;8.90;;;2.00;;
23260;SDS011;11799;47.740;-3.390;2023-04-24T14:00:02;9.70;;;2.22;;
23260;SDS011;11799;47.740;-3.390;2023-04-24T14:02:32;7.28;;;2.28;;
23260;SDS011;11799;47.740;-3.390;2023-04-24T14:04:57;19.17;;;2.33;;
23260;SDS011;11799;47.740;-3.390;2023-04-24T14:07:23;7.35;;;2.05;;
23260;SDS011;11799;47.740;-3.390;2023-04-24T14:09:49;10.00;;;2.30;;
23260;SDS011;11799;47.740;-3.390;2023-04-24T14:12:15;5.68;;;1.98;;
23260;SDS011;11799;47.740;-3.390;2023-04-24T14:14:45;7.30;;;1.98;;
23260;SDS011;11799;47.740;-3.390;2023-04-24T14:17:12;7.68;;;1.90;;
23260;SDS011;11799;47.740;-3.390;2023-04-24T14:19:37;10.27;;;3.30;;
23260;SDS011;11799;47.740;-3.390;2023-04-24T14:22:03;8.98;;;2.20;;
23260;SDS011;11799;47.740;-3.390;2023-04-24T14:24:28;4.63;;;1.73;;
23260;SDS011;11799;47.740;-3.390;2023-04-24T14:26:54;8.25;;;2.10;;
23260;SDS011;11799;47.740;-3.390;2023-04-24T14:29:21;7.53;;;1.80;;
23260;SDS011;11799;47.740;-3.390;2023-04-24T14:31:47;12.13;;;2.58;;
23260;SDS011;11799;47.740;-3.390;2023-04-24T14:34:13;9.90;;;2.05;;
23260;SDS011;11799;47.740;-3.390;2023-04-24T14:36:39;5.40;;;1.85;;
23260;SDS011;11799;47.740;-3.390;2023-04-24T14:39:04;6.30;;;2.10;;
23260;SDS011;11799;47.740;-3.390;2023-04-24T14:41:31;7.32;;;2.13;;